Terminal Aerodrome Forecast
Issued by NWS Shreveport, LA

Home | Current Version | Previous Version | Text Only | Print | Product List | Glossary On
Versions: 1 2 3 4 5 6 7 8 9 10 11 12 13 14 15
000
FTUS44 KSHV 270528
TAFTXK
TAF
KTXK 270528Z 2706/2806 VRB03KT P6SM BKN280
      TEMPO 2708/2711 4SM BR BKN280
     FM271100 VRB03KT 4SM BR FEW015
     FM271400 08003KT P6SM SCT045 SCT100
     FM271900 10006KT P6SM BKN045 BKN250
     FM280000 09004KT P6SM OVC100=

USA.gov is the U.S. government's official web portal to all federal, state and local government web resources and services.